sensor_id;sensor_type;location;lat;lon;timestamp;P1;durP1;ratioP1;P2;durP2;ratioP2
18338;SDS011;9295;44.484;11.240;2024-01-30T00:01:16;83.17;;;35.97;;
18338;SDS011;9295;44.484;11.240;2024-01-30T00:03:45;71.87;;;32.50;;
18338;SDS011;9295;44.484;11.240;2024-01-30T00:06:13;79.77;;;35.90;;
18338;SDS011;9295;44.484;11.240;2024-01-30T00:08:42;88.73;;;34.90;;
18338;SDS011;9295;44.484;11.240;2024-01-30T00:11:13;79.93;;;34.47;;
18338;SDS011;9295;44.484;11.240;2024-01-30T00:13:41;82.50;;;33.00;;
18338;SDS011;9295;44.484;11.240;2024-01-30T00:16:21;80.30;;;32.70;;
18338;SDS011;9295;44.484;11.240;2024-01-30T00:18:50;77.63;;;33.07;;
18338;SDS011;9295;44.484;11.240;2024-01-30T00:21:20;77.93;;;33.90;;
18338;SDS011;9295;44.484;11.240;2024-01-30T00:23:49;72.83;;;33.90;;
18338;SDS011;9295;44.484;11.240;2024-01-30T00:26:17;92.73;;;33.73;;
18338;SDS011;9295;44.484;11.240;2024-01-30T00:28:47;75.43;;;30.83;;
18338;SDS011;9295;44.484;11.240;2024-01-30T00:31:15;80.40;;;31.30;;
18338;SDS011;9295;44.484;11.240;2024-01-30T00:33:45;64.53;;;29.97;;
18338;SDS011;9295;44.484;11.240;2024-01-30T00:36:14;66.00;;;30.80;;
18338;SDS011;9295;44.484;11.240;2024-01-30T00:38:43;77.60;;;31.80;;
18338;SDS011;9295;44.484;11.240;2024-01-30T00:41:11;72.10;;;31.30;;
18338;SDS011;9295;44.484;11.240;2024-01-30T00:43:40;76.97;;;31.40;;
18338;SDS011;9295;44.484;11.240;2024-01-30T00:46:08;74.57;;;33.07;;
18338;SDS011;9295;44.484;11.240;2024-01-30T00:48:36;69.27;;;31.80;;
18338;SDS011;9295;44.484;11.240;2024-01-30T00:51:06;71.40;;;31.90;;
18338;SDS011;9295;44.484;11.240;2024-01-30T00:53:35;68.27;;;33.30;;
18338;SDS011;9295;44.484;11.240;2024-01-30T00:56:04;80.57;;;33.47;;
18338;SDS011;9295;44.484;11.240;2024-01-30T00:58:32;89.63;;;36.63;;
18338;SDS011;9295;44.484;11.240;2024-01-30T01:01:01;83.50;;;36.80;;
18338;SDS011;9295;44.484;11.240;2024-01-30T01:03:30;86.60;;;34.07;;
18338;SDS011;9295;44.484;11.240;2024-01-30T01:05:58;81.80;;;35.87;;
18338;SDS011;9295;44.484;11.240;2024-01-30T01:08:28;67.40;;;31.97;;
18338;SDS011;9295;44.484;11.240;2024-01-30T01:10:57;79.50;;;34.43;;
18338;SDS011;9295;44.484;11.240;2024-01-30T01:13:43;75.73;;;32.20;;
18338;SDS011;9295;44.484;11.240;2024-01-30T01:16:11;74.33;;;32.47;;
18338;SDS011;9295;44.484;11.240;2024-01-30T01:18:40;68.07;;;30.80;;
18338;SDS011;9295;44.484;11.240;2024-01-30T01:21:08;66.97;;;30.07;;
18338;SDS011;9295;44.484;11.240;2024-01-30T01:23:38;66.07;;;28.50;;
18338;SDS011;9295;44.484;11.240;2024-01-30T01:26:07;62.07;;;30.40;;
18338;SDS011;9295;44.484;11.240;2024-01-30T01:28:36;77.63;;;32.07;;
18338;SDS011;9295;44.484;11.240;2024-01-30T01:31:04;72.53;;;31.30;;
18338;SDS011;9295;44.484;11.240;2024-01-30T01:33:33;67.53;;;30.07;;
18338;SDS011;9295;44.484;11.240;2024-01-30T01:36:04;64.53;;;29.47;;
18338;SDS011;9295;44.484;11.240;2024-01-30T01:38:33;77.60;;;32.70;;
18338;SDS011;9295;44.484;11.240;2024-01-30T01:41:03;75.70;;;31.63;;
18338;SDS011;9295;44.484;11.240;2024-01-30T01:43:32;80.73;;;34.47;;
18338;SDS011;9295;44.484;11.240;2024-01-30T01:46:00;70.13;;;32.37;;
18338;SDS011;9295;44.484;11.240;2024-01-30T01:48:29;78.03;;;34.00;;
18338;SDS011;9295;44.484;11.240;2024-01-30T01:50:57;79.60;;;33.80;;
18338;SDS011;9295;44.484;11.240;2024-01-30T01:53:27;77.53;;;33.37;;
18338;SDS011;9295;44.484;11.240;2024-01-30T01:55:56;71.10;;;31.63;;
18338;SDS011;9295;44.484;11.240;2024-01-30T01:58:26;70.07;;;32.73;;
18338;SDS011;9295;44.484;11.240;2024-01-30T02:00:57;65.90;;;30.17;;
18338;SDS011;9295;44.484;11.240;2024-01-30T02:03:26;73.63;;;33.30;;
18338;SDS011;9295;44.484;11.240;2024-01-30T02:05:55;67.00;;;30.27;;
18338;SDS011;9295;44.484;11.240;2024-01-30T02:08:24;76.57;;;32.30;;
18338;SDS011;9295;44.484;11.240;2024-01-30T02:10:53;78.40;;;32.67;;
18338;SDS011;9295;44.484;11.240;2024-01-30T02:13:22;78.23;;;35.60;;
18338;SDS011;9295;44.484;11.240;2024-01-30T02:15:52;67.27;;;33.10;;
18338;SDS011;9295;44.484;11.240;2024-01-30T02:18:21;69.90;;;32.63;;
18338;SDS011;9295;44.484;11.240;2024-01-30T02:21:11;69.30;;;32.23;;
18338;SDS011;9295;44.484;11.240;2024-01-30T02:23:40;86.10;;;35.30;;
18338;SDS011;9295;44.484;11.240;2024-01-30T02:26:10;66.30;;;32.77;;
18338;SDS011;9295;44.484;11.240;2024-01-30T02:28:39;70.30;;;32.00;;
18338;SDS011;9295;44.484;11.240;2024-01-30T02:31:07;72.30;;;32.40;;
18338;SDS011;9295;44.484;11.240;2024-01-30T02:33:36;72.60;;;32.50;;
18338;SDS011;9295;44.484;11.240;2024-01-30T02:36:05;80.20;;;32.57;;
18338;SDS011;9295;44.484;11.240;2024-01-30T02:38:35;91.85;;;35.17;;
18338;SDS011;9295;44.484;11.240;2024-01-30T02:41:03;69.13;;;32.63;;
18338;SDS011;9295;44.484;11.240;2024-01-30T02:43:32;69.20;;;32.27;;
18338;SDS011;9295;44.484;11.240;2024-01-30T02:46:00;78.60;;;34.80;;
18338;SDS011;9295;44.484;11.240;2024-01-30T02:48:28;78.30;;;34.30;;
18338;SDS011;9295;44.484;11.240;2024-01-30T02:50:57;74.07;;;33.30;;
18338;SDS011;9295;44.484;11.240;2024-01-30T02:53:25;69.97;;;31.03;;
18338;SDS011;9295;44.484;11.240;2024-01-30T02:55:55;67.10;;;30.03;;
18338;SDS011;9295;44.484;11.240;2024-01-30T02:58:24;57.17;;;29.67;;
18338;SDS011;9295;44.484;11.240;2024-01-30T03:00:53;71.23;;;30.37;;
18338;SDS011;9295;44.484;11.240;2024-01-30T03:03:22;57.37;;;30.60;;
18338;SDS011;9295;44.484;11.240;2024-01-30T03:05:51;65.17;;;30.80;;
18338;SDS011;9295;44.484;11.240;2024-01-30T03:08:19;71.47;;;31.33;;
18338;SDS011;9295;44.484;11.240;2024-01-30T03:10:48;69.07;;;31.60;;
18338;SDS011;9295;44.484;11.240;2024-01-30T03:13:18;81.57;;;33.83;;
18338;SDS011;9295;44.484;11.240;2024-01-30T03:15:46;74.87;;;32.00;;
18338;SDS011;9295;44.484;11.240;2024-01-30T03:18:16;73.77;;;32.00;;
18338;SDS011;9295;44.484;11.240;2024-01-30T03:20:44;63.03;;;29.50;;
18338;SDS011;9295;44.484;11.240;2024-01-30T03:23:13;71.00;;;31.67;;
18338;SDS011;9295;44.484;11.240;2024-01-30T03:25:41;65.73;;;32.13;;
18338;SDS011;9295;44.484;11.240;2024-01-30T03:28:09;71.00;;;32.00;;
18338;SDS011;9295;44.484;11.240;2024-01-30T03:30:39;65.03;;;30.47;;
18338;SDS011;9295;44.484;11.240;2024-01-30T03:33:08;69.83;;;30.70;;
18338;SDS011;9295;44.484;11.240;2024-01-30T03:35:36;74.70;;;31.43;;
18338;SDS011;9295;44.484;11.240;2024-01-30T03:38:05;77.30;;;33.10;;
18338;SDS011;9295;44.484;11.240;2024-01-30T03:40:33;69.10;;;31.20;;
18338;SDS011;9295;44.484;11.240;2024-01-30T03:43:02;83.20;;;33.80;;
18338;SDS011;9295;44.484;11.240;2024-01-30T03:45:31;74.07;;;30.77;;
18338;SDS011;9295;44.484;11.240;2024-01-30T03:48:01;64.67;;;29.30;;
18338;SDS011;9295;44.484;11.240;2024-01-30T03:50:30;76.72;;;33.53;;
18338;SDS011;9295;44.484;11.240;2024-01-30T03:52:58;77.63;;;33.50;;
18338;SDS011;9295;44.484;11.240;2024-01-30T03:55:27;79.60;;;32.42;;
18338;SDS011;9295;44.484;11.240;2024-01-30T03:57:56;74.00;;;32.40;;
18338;SDS011;9295;44.484;11.240;2024-01-30T04:00:24;71.93;;;31.47;;
18338;SDS011;9295;44.484;11.240;2024-01-30T04:02:53;67.10;;;31.73;;
18338;SDS011;9295;44.484;11.240;2024-01-30T04:05:23;73.27;;;31.77;;
18338;SDS011;9295;44.484;11.240;2024-01-30T04:07:52;61.60;;;29.60;;
18338;SDS011;9295;44.484;11.240;2024-01-30T04:10:20;60.67;;;27.87;;
18338;SDS011;9295;44.484;11.240;2024-01-30T04:12:48;67.00;;;29.50;;
18338;SDS011;9295;44.484;11.240;2024-01-30T04:15:18;72.13;;;31.00;;
18338;SDS011;9295;44.484;11.240;2024-01-30T04:17:46;60.73;;;29.80;;
18338;SDS011;9295;44.484;11.240;2024-01-30T04:20:15;66.13;;;29.30;;
18338;SDS011;9295;44.484;11.240;2024-01-30T04:22:45;60.53;;;28.90;;
18338;SDS011;9295;44.484;11.240;2024-01-30T04:25:14;64.87;;;29.27;;
18338;SDS011;9295;44.484;11.240;2024-01-30T04:27:42;69.40;;;28.33;;
18338;SDS011;9295;44.484;11.240;2024-01-30T04:30:11;65.83;;;29.60;;
18338;SDS011;9295;44.484;11.240;2024-01-30T04:32:40;53.17;;;25.70;;
18338;SDS011;9295;44.484;11.240;2024-01-30T04:35:08;58.80;;;27.90;;
18338;SDS011;9295;44.484;11.240;2024-01-30T04:37:38;56.83;;;27.33;;
18338;SDS011;9295;44.484;11.240;2024-01-30T04:40:08;65.40;;;28.65;;
18338;SDS011;9295;44.484;11.240;2024-01-30T04:42:37;66.38;;;29.23;;
18338;SDS011;9295;44.484;11.240;2024-01-30T04:45:06;66.90;;;27.47;;
18338;SDS011;9295;44.484;11.240;2024-01-30T04:47:34;60.22;;;28.33;;
18338;SDS011;9295;44.484;11.240;2024-01-30T04:50:03;57.65;;;27.90;;
18338;SDS011;9295;44.484;11.240;2024-01-30T04:52:32;68.82;;;28.23;;
18338;SDS011;9295;44.484;11.240;2024-01-30T04:55:01;53.67;;;26.35;;
18338;SDS011;9295;44.484;11.240;2024-01-30T04:57:31;61.27;;;29.80;;
18338;SDS011;9295;44.484;11.240;2024-01-30T05:00:00;61.33;;;27.67;;
18338;SDS011;9295;44.484;11.240;2024-01-30T05:02:29;63.38;;;28.67;;
18338;SDS011;9295;44.484;11.240;2024-01-30T05:04:57;62.00;;;28.27;;
18338;SDS011;9295;44.484;11.240;2024-01-30T05:07:26;71.13;;;29.87;;
18338;SDS011;9295;44.484;11.240;2024-01-30T05:09:55;66.60;;;29.60;;
18338;SDS011;9295;44.484;11.240;2024-01-30T05:12:25;60.85;;;27.77;;
18338;SDS011;9295;44.484;11.240;2024-01-30T05:14:55;62.42;;;29.10;;
18338;SDS011;9295;44.484;11.240;2024-01-30T05:17:24;65.63;;;28.38;;
18338;SDS011;9295;44.484;11.240;2024-01-30T05:19:52;65.40;;;29.47;;
18338;SDS011;9295;44.484;11.240;2024-01-30T05:22:21;62.17;;;27.92;;
18338;SDS011;9295;44.484;11.240;2024-01-30T05:24:49;71.47;;;31.10;;
18338;SDS011;9295;44.484;11.240;2024-01-30T05:27:18;101.50;;;44.28;;
18338;SDS011;9295;44.484;11.240;2024-01-30T05:29:46;63.60;;;29.95;;
18338;SDS011;9295;44.484;11.240;2024-01-30T05:32:17;65.40;;;29.35;;
18338;SDS011;9295;44.484;11.240;2024-01-30T05:34:46;56.90;;;28.27;;
18338;SDS011;9295;44.484;11.240;2024-01-30T05:37:17;72.55;;;30.02;;
18338;SDS011;9295;44.484;11.240;2024-01-30T05:39:45;61.83;;;27.33;;
18338;SDS011;9295;44.484;11.240;2024-01-30T05:42:14;66.25;;;25.83;;
18338;SDS011;9295;44.484;11.240;2024-01-30T05:44:43;58.00;;;26.48;;
18338;SDS011;9295;44.484;11.240;2024-01-30T05:47:12;61.72;;;27.00;;
18338;SDS011;9295;44.484;11.240;2024-01-30T05:49:41;61.17;;;26.00;;
18338;SDS011;9295;44.484;11.240;2024-01-30T05:52:10;61.65;;;25.90;;
18338;SDS011;9295;44.484;11.240;2024-01-30T05:54:38;60.50;;;28.03;;
18338;SDS011;9295;44.484;11.240;2024-01-30T05:57:07;58.50;;;27.58;;
18338;SDS011;9295;44.484;11.240;2024-01-30T05:59:35;59.78;;;27.67;;
18338;SDS011;9295;44.484;11.240;2024-01-30T06:02:07;61.50;;;27.50;;
18338;SDS011;9295;44.484;11.240;2024-01-30T06:04:36;54.17;;;24.87;;
18338;SDS011;9295;44.484;11.240;2024-01-30T06:07:06;54.15;;;24.30;;
18338;SDS011;9295;44.484;11.240;2024-01-30T06:09:35;59.30;;;26.27;;
18338;SDS011;9295;44.484;11.240;2024-01-30T06:12:05;54.60;;;25.02;;
18338;SDS011;9295;44.484;11.240;2024-01-30T06:14:33;59.38;;;27.83;;
18338;SDS011;9295;44.484;11.240;2024-01-30T06:17:02;65.50;;;29.73;;
18338;SDS011;9295;44.484;11.240;2024-01-30T06:19:31;54.03;;;26.35;;
18338;SDS011;9295;44.484;11.240;2024-01-30T06:22:00;54.37;;;26.27;;
18338;SDS011;9295;44.484;11.240;2024-01-30T06:24:33;59.57;;;26.20;;
18338;SDS011;9295;44.484;11.240;2024-01-30T06:27:01;57.90;;;27.45;;
18338;SDS011;9295;44.484;11.240;2024-01-30T06:29:30;53.38;;;23.15;;
18338;SDS011;9295;44.484;11.240;2024-01-30T06:31:59;52.17;;;26.05;;
18338;SDS011;9295;44.484;11.240;2024-01-30T06:34:27;59.22;;;26.90;;
18338;SDS011;9295;44.484;11.240;2024-01-30T06:36:56;57.88;;;25.90;;
18338;SDS011;9295;44.484;11.240;2024-01-30T06:39:24;58.28;;;25.90;;
18338;SDS011;9295;44.484;11.240;2024-01-30T06:41:55;61.40;;;26.83;;
18338;SDS011;9295;44.484;11.240;2024-01-30T06:44:23;63.22;;;25.77;;
18338;SDS011;9295;44.484;11.240;2024-01-30T06:46:52;65.72;;;28.13;;
18338;SDS011;9295;44.484;11.240;2024-01-30T06:49:20;59.88;;;26.67;;
18338;SDS011;9295;44.484;11.240;2024-01-30T06:51:49;57.65;;;26.02;;
18338;SDS011;9295;44.484;11.240;2024-01-30T06:54:18;59.13;;;26.63;;
18338;SDS011;9295;44.484;11.240;2024-01-30T06:56:46;60.33;;;25.90;;
18338;SDS011;9295;44.484;11.240;2024-01-30T06:59:16;55.33;;;24.90;;
18338;SDS011;9295;44.484;11.240;2024-01-30T07:01:45;52.80;;;25.87;;
18338;SDS011;9295;44.484;11.240;2024-01-30T07:04:13;56.28;;;24.55;;
18338;SDS011;9295;44.484;11.240;2024-01-30T07:06:42;53.03;;;24.30;;
18338;SDS011;9295;44.484;11.240;2024-01-30T07:09:12;63.08;;;26.27;;
18338;SDS011;9295;44.484;11.240;2024-01-30T07:11:41;61.47;;;25.30;;
18338;SDS011;9295;44.484;11.240;2024-01-30T07:14:09;52.58;;;25.48;;
18338;SDS011;9295;44.484;11.240;2024-01-30T07:16:39;50.22;;;23.52;;
18338;SDS011;9295;44.484;11.240;2024-01-30T07:19:08;57.90;;;24.40;;
18338;SDS011;9295;44.484;11.240;2024-01-30T07:21:36;51.17;;;23.00;;
18338;SDS011;9295;44.484;11.240;2024-01-30T07:24:07;46.80;;;22.03;;
18338;SDS011;9295;44.484;11.240;2024-01-30T07:26:35;46.03;;;22.40;;
18338;SDS011;9295;44.484;11.240;2024-01-30T07:29:04;42.23;;;21.53;;
18338;SDS011;9295;44.484;11.240;2024-01-30T07:31:32;40.50;;;21.77;;
18338;SDS011;9295;44.484;11.240;2024-01-30T07:34:02;37.10;;;21.57;;
18338;SDS011;9295;44.484;11.240;2024-01-30T07:36:31;41.07;;;21.87;;
18338;SDS011;9295;44.484;11.240;2024-01-30T07:39:00;37.10;;;20.83;;
18338;SDS011;9295;44.484;11.240;2024-01-30T07:41:29;34.73;;;20.07;;
18338;SDS011;9295;44.484;11.240;2024-01-30T07:43:58;40.90;;;21.90;;
18338;SDS011;9295;44.484;11.240;2024-01-30T07:46:26;37.03;;;22.93;;
18338;SDS011;9295;44.484;11.240;2024-01-30T07:48:55;39.30;;;21.40;;
18338;SDS011;9295;44.484;11.240;2024-01-30T07:51:28;40.83;;;22.50;;
18338;SDS011;9295;44.484;11.240;2024-01-30T07:53:59;40.80;;;22.87;;
18338;SDS011;9295;44.484;11.240;2024-01-30T07:56:28;39.60;;;22.20;;
18338;SDS011;9295;44.484;11.240;2024-01-30T07:58:57;44.10;;;22.37;;
18338;SDS011;9295;44.484;11.240;2024-01-30T08:01:26;41.80;;;23.50;;
18338;SDS011;9295;44.484;11.240;2024-01-30T08:03:54;39.77;;;22.03;;
18338;SDS011;9295;44.484;11.240;2024-01-30T08:06:23;38.10;;;21.67;;
18338;SDS011;9295;44.484;11.240;2024-01-30T08:08:53;51.13;;;23.07;;
18338;SDS011;9295;44.484;11.240;2024-01-30T08:11:21;44.53;;;22.50;;
18338;SDS011;9295;44.484;11.240;2024-01-30T08:13:53;42.90;;;23.47;;
18338;SDS011;9295;44.484;11.240;2024-01-30T08:16:21;45.27;;;24.33;;
18338;SDS011;9295;44.484;11.240;2024-01-30T08:18:50;41.50;;;22.27;;
18338;SDS011;9295;44.484;11.240;2024-01-30T08:21:20;39.50;;;22.67;;
18338;SDS011;9295;44.484;11.240;2024-01-30T08:23:48;44.90;;;24.73;;
18338;SDS011;9295;44.484;11.240;2024-01-30T08:26:18;43.10;;;22.20;;
18338;SDS011;9295;44.484;11.240;2024-01-30T08:28:46;48.43;;;23.67;;
18338;SDS011;9295;44.484;11.240;2024-01-30T08:31:15;46.50;;;23.23;;
18338;SDS011;9295;44.484;11.240;2024-01-30T08:33:44;46.53;;;23.00;;
18338;SDS011;9295;44.484;11.240;2024-01-30T08:36:16;48.23;;;26.87;;
18338;SDS011;9295;44.484;11.240;2024-01-30T08:38:45;50.60;;;27.80;;
18338;SDS011;9295;44.484;11.240;2024-01-30T08:41:13;57.53;;;30.53;;
18338;SDS011;9295;44.484;11.240;2024-01-30T08:43:43;57.37;;;30.50;;
18338;SDS011;9295;44.484;11.240;2024-01-30T08:46:12;61.30;;;30.20;;
18338;SDS011;9295;44.484;11.240;2024-01-30T08:48:41;55.37;;;28.57;;
18338;SDS011;9295;44.484;11.240;2024-01-30T08:51:10;61.13;;;29.40;;
18338;SDS011;9295;44.484;11.240;2024-01-30T08:53:38;62.70;;;32.07;;
18338;SDS011;9295;44.484;11.240;2024-01-30T08:56:07;63.37;;;30.20;;
18338;SDS011;9295;44.484;11.240;2024-01-30T08:58:35;59.63;;;31.27;;
18338;SDS011;9295;44.484;11.240;2024-01-30T09:01:06;55.27;;;30.80;;
18338;SDS011;9295;44.484;11.240;2024-01-30T09:03:34;59.30;;;31.80;;
18338;SDS011;9295;44.484;11.240;2024-01-30T09:06:03;58.33;;;31.70;;
18338;SDS011;9295;44.484;11.240;2024-01-30T09:08:32;57.63;;;32.07;;
18338;SDS011;9295;44.484;11.240;2024-01-30T09:11:00;59.70;;;33.17;;
18338;SDS011;9295;44.484;11.240;2024-01-30T09:13:29;57.90;;;29.73;;
18338;SDS011;9295;44.484;11.240;2024-01-30T09:15:57;55.53;;;30.47;;
18338;SDS011;9295;44.484;11.240;2024-01-30T09:18:27;57.37;;;31.10;;
18338;SDS011;9295;44.484;11.240;2024-01-30T09:20:56;59.70;;;30.80;;
18338;SDS011;9295;44.484;11.240;2024-01-30T09:23:25;56.60;;;30.17;;
18338;SDS011;9295;44.484;11.240;2024-01-30T09:25:55;52.73;;;29.67;;
18338;SDS011;9295;44.484;11.240;2024-01-30T09:28:23;60.20;;;31.77;;
18338;SDS011;9295;44.484;11.240;2024-01-30T09:30:53;61.10;;;30.97;;
18338;SDS011;9295;44.484;11.240;2024-01-30T09:33:22;57.93;;;31.00;;
18338;SDS011;9295;44.484;11.240;2024-01-30T09:35:51;63.63;;;32.53;;
18338;SDS011;9295;44.484;11.240;2024-01-30T09:38:20;62.67;;;31.57;;
18338;SDS011;9295;44.484;11.240;2024-01-30T09:40:50;56.90;;;30.67;;
18338;SDS011;9295;44.484;11.240;2024-01-30T09:43:23;57.97;;;29.33;;
18338;SDS011;9295;44.484;11.240;2024-01-30T09:45:53;56.20;;;30.60;;
18338;SDS011;9295;44.484;11.240;2024-01-30T09:48:23;55.20;;;27.63;;
18338;SDS011;9295;44.484;11.240;2024-01-30T09:50:54;58.07;;;28.83;;
18338;SDS011;9295;44.484;11.240;2024-01-30T09:53:25;56.30;;;28.70;;
18338;SDS011;9295;44.484;11.240;2024-01-30T09:55:54;74.37;;;30.77;;
18338;SDS011;9295;44.484;11.240;2024-01-30T09:58:23;64.40;;;30.57;;
18338;SDS011;9295;44.484;11.240;2024-01-30T10:00:53;59.27;;;29.00;;
18338;SDS011;9295;44.484;11.240;2024-01-30T10:03:25;67.87;;;31.87;;
18338;SDS011;9295;44.484;11.240;2024-01-30T10:05:55;68.90;;;31.37;;
18338;SDS011;9295;44.484;11.240;2024-01-30T10:08:25;66.43;;;30.33;;
18338;SDS011;9295;44.484;11.240;2024-01-30T10:10:56;56.47;;;29.00;;
18338;SDS011;9295;44.484;11.240;2024-01-30T10:13:25;62.77;;;31.23;;
18338;SDS011;9295;44.484;11.240;2024-01-30T10:15:54;58.43;;;30.20;;
18338;SDS011;9295;44.484;11.240;2024-01-30T10:18:24;63.53;;;32.17;;
18338;SDS011;9295;44.484;11.240;2024-01-30T10:20:54;65.53;;;32.90;;
18338;SDS011;9295;44.484;11.240;2024-01-30T10:23:23;57.33;;;30.27;;
18338;SDS011;9295;44.484;11.240;2024-01-30T10:25:55;55.07;;;29.17;;
18338;SDS011;9295;44.484;11.240;2024-01-30T10:28:26;55.20;;;29.80;;
18338;SDS011;9295;44.484;11.240;2024-01-30T10:30:59;54.67;;;30.90;;
18338;SDS011;9295;44.484;11.240;2024-01-30T10:33:32;67.23;;;30.07;;
18338;SDS011;9295;44.484;11.240;2024-01-30T10:36:03;59.63;;;31.17;;
18338;SDS011;9295;44.484;11.240;2024-01-30T10:38:32;59.47;;;30.37;;
18338;SDS011;9295;44.484;11.240;2024-01-30T10:41:01;60.43;;;31.23;;
18338;SDS011;9295;44.484;11.240;2024-01-30T10:43:31;58.37;;;31.93;;
18338;SDS011;9295;44.484;11.240;2024-01-30T10:46:03;54.53;;;28.13;;
18338;SDS011;9295;44.484;11.240;2024-01-30T10:48:41;60.53;;;29.10;;
18338;SDS011;9295;44.484;11.240;2024-01-30T10:51:13;47.23;;;27.30;;
18338;SDS011;9295;44.484;11.240;2024-01-30T10:53:43;66.77;;;28.53;;
18338;SDS011;9295;44.484;11.240;2024-01-30T10:56:15;56.87;;;29.33;;
18338;SDS011;9295;44.484;11.240;2024-01-30T10:58:44;50.43;;;27.43;;
18338;SDS011;9295;44.484;11.240;2024-01-30T11:01:13;52.37;;;29.23;;
18338;SDS011;9295;44.484;11.240;2024-01-30T11:03:43;53.37;;;30.33;;
18338;SDS011;9295;44.484;11.240;2024-01-30T11:06:11;48.37;;;29.07;;
18338;SDS011;9295;44.484;11.240;2024-01-30T11:08:45;54.60;;;28.23;;
18338;SDS011;9295;44.484;11.240;2024-01-30T11:11:14;48.03;;;28.20;;
18338;SDS011;9295;44.484;11.240;2024-01-30T11:13:45;47.43;;;25.57;;
18338;SDS011;9295;44.484;11.240;2024-01-30T11:16:17;45.10;;;26.30;;
18338;SDS011;9295;44.484;11.240;2024-01-30T11:18:50;54.50;;;26.90;;
18338;SDS011;9295;44.484;11.240;2024-01-30T11:21:21;60.40;;;29.27;;
18338;SDS011;9295;44.484;11.240;2024-01-30T11:23:53;56.20;;;29.83;;
18338;SDS011;9295;44.484;11.240;2024-01-30T11:26:23;51.67;;;29.30;;
18338;SDS011;9295;44.484;11.240;2024-01-30T11:28:56;59.07;;;31.60;;
18338;SDS011;9295;44.484;11.240;2024-01-30T11:31:25;46.27;;;28.07;;
18338;SDS011;9295;44.484;11.240;2024-01-30T11:33:54;47.83;;;26.80;;
18338;SDS011;9295;44.484;11.240;2024-01-30T11:36:26;53.07;;;28.90;;
18338;SDS011;9295;44.484;11.240;2024-01-30T11:38:55;53.00;;;28.27;;
18338;SDS011;9295;44.484;11.240;2024-01-30T11:41:24;46.30;;;25.67;;
18338;SDS011;9295;44.484;11.240;2024-01-30T11:43:53;51.27;;;28.17;;
18338;SDS011;9295;44.484;11.240;2024-01-30T11:46:22;52.20;;;28.70;;
18338;SDS011;9295;44.484;11.240;2024-01-30T11:48:53;52.10;;;28.53;;
18338;SDS011;9295;44.484;11.240;2024-01-30T11:51:22;48.90;;;26.73;;
18338;SDS011;9295;44.484;11.240;2024-01-30T11:53:51;47.27;;;26.40;;
18338;SDS011;9295;44.484;11.240;2024-01-30T11:56:20;49.90;;;27.70;;
18338;SDS011;9295;44.484;11.240;2024-01-30T11:58:48;53.20;;;26.27;;
18338;SDS011;9295;44.484;11.240;2024-01-30T12:01:18;43.27;;;24.93;;
18338;SDS011;9295;44.484;11.240;2024-01-30T12:03:49;46.47;;;24.80;;
18338;SDS011;9295;44.484;11.240;2024-01-30T12:06:17;45.60;;;23.20;;
18338;SDS011;9295;44.484;11.240;2024-01-30T12:08:57;44.00;;;23.03;;
18338;SDS011;9295;44.484;11.240;2024-01-30T12:11:26;33.90;;;20.17;;
18338;SDS011;9295;44.484;11.240;2024-01-30T12:13:56;39.70;;;19.07;;
18338;SDS011;9295;44.484;11.240;2024-01-30T12:16:25;37.93;;;20.57;;
18338;SDS011;9295;44.484;11.240;2024-01-30T12:19:03;48.90;;;24.60;;
18338;SDS011;9295;44.484;11.240;2024-01-30T12:21:31;52.60;;;24.53;;
18338;SDS011;9295;44.484;11.240;2024-01-30T12:24:02;39.13;;;22.03;;
18338;SDS011;9295;44.484;11.240;2024-01-30T12:26:33;39.93;;;20.60;;
18338;SDS011;9295;44.484;11.240;2024-01-30T12:29:03;44.30;;;21.97;;
18338;SDS011;9295;44.484;11.240;2024-01-30T12:31:32;40.83;;;22.20;;
18338;SDS011;9295;44.484;11.240;2024-01-30T12:34:01;44.97;;;22.40;;
18338;SDS011;9295;44.484;11.240;2024-01-30T12:36:30;43.03;;;21.60;;
18338;SDS011;9295;44.484;11.240;2024-01-30T12:38:58;49.37;;;24.43;;
18338;SDS011;9295;44.484;11.240;2024-01-30T12:41:29;41.50;;;24.10;;
18338;SDS011;9295;44.484;11.240;2024-01-30T12:43:58;42.47;;;22.23;;
18338;SDS011;9295;44.484;11.240;2024-01-30T12:46:27;48.33;;;25.13;;
18338;SDS011;9295;44.484;11.240;2024-01-30T12:48:56;39.43;;;21.70;;
18338;SDS011;9295;44.484;11.240;2024-01-30T12:51:25;38.60;;;23.30;;
18338;SDS011;9295;44.484;11.240;2024-01-30T12:53:54;49.33;;;24.80;;
18338;SDS011;9295;44.484;11.240;2024-01-30T12:56:22;42.80;;;24.20;;
18338;SDS011;9295;44.484;11.240;2024-01-30T12:58:52;47.27;;;22.70;;
18338;SDS011;9295;44.484;11.240;2024-01-30T13:01:21;45.77;;;23.50;;
18338;SDS011;9295;44.484;11.240;2024-01-30T13:03:50;41.97;;;23.40;;
18338;SDS011;9295;44.484;11.240;2024-01-30T13:06:19;40.93;;;23.93;;
18338;SDS011;9295;44.484;11.240;2024-01-30T13:08:48;43.63;;;23.30;;
18338;SDS011;9295;44.484;11.240;2024-01-30T13:11:17;41.23;;;24.47;;
18338;SDS011;9295;44.484;11.240;2024-01-30T13:13:47;46.30;;;25.47;;
18338;SDS011;9295;44.484;11.240;2024-01-30T13:16:17;47.10;;;25.13;;
18338;SDS011;9295;44.484;11.240;2024-01-30T13:18:46;40.20;;;23.20;;
18338;SDS011;9295;44.484;11.240;2024-01-30T13:21:15;46.30;;;24.20;;
18338;SDS011;9295;44.484;11.240;2024-01-30T13:23:43;44.50;;;24.10;;
18338;SDS011;9295;44.484;11.240;2024-01-30T13:26:12;45.93;;;26.83;;
18338;SDS011;9295;44.484;11.240;2024-01-30T13:28:40;48.63;;;26.00;;
18338;SDS011;9295;44.484;11.240;2024-01-30T13:31:11;47.70;;;24.30;;
18338;SDS011;9295;44.484;11.240;2024-01-30T13:33:41;45.77;;;25.00;;
18338;SDS011;9295;44.484;11.240;2024-01-30T13:36:10;47.63;;;24.97;;
18338;SDS011;9295;44.484;11.240;2024-01-30T13:38:39;45.43;;;23.40;;
18338;SDS011;9295;44.484;11.240;2024-01-30T13:41:08;47.33;;;26.20;;
18338;SDS011;9295;44.484;11.240;2024-01-30T13:43:36;48.57;;;26.20;;
18338;SDS011;9295;44.484;11.240;2024-01-30T13:46:05;61.03;;;25.87;;
18338;SDS011;9295;44.484;11.240;2024-01-30T13:48:33;52.97;;;25.80;;
18338;SDS011;9295;44.484;11.240;2024-01-30T13:51:03;57.67;;;26.90;;
18338;SDS011;9295;44.484;11.240;2024-01-30T13:53:32;52.00;;;26.90;;
18338;SDS011;9295;44.484;11.240;2024-01-30T13:56:01;48.90;;;25.37;;
18338;SDS011;9295;44.484;11.240;2024-01-30T13:58:29;50.93;;;24.80;;
18338;SDS011;9295;44.484;11.240;2024-01-30T14:01:00;50.77;;;26.73;;
18338;SDS011;9295;44.484;11.240;2024-01-30T14:03:29;49.67;;;26.40;;
18338;SDS011;9295;44.484;11.240;2024-01-30T14:05:57;49.77;;;26.17;;
18338;SDS011;9295;44.484;11.240;2024-01-30T14:08:28;50.93;;;25.87;;
18338;SDS011;9295;44.484;11.240;2024-01-30T14:10:57;53.27;;;25.17;;
18338;SDS011;9295;44.484;11.240;2024-01-30T14:13:25;43.77;;;25.13;;
18338;SDS011;9295;44.484;11.240;2024-01-30T14:15:55;48.20;;;23.40;;
18338;SDS011;9295;44.484;11.240;2024-01-30T14:18:24;44.90;;;25.20;;
18338;SDS011;9295;44.484;11.240;2024-01-30T14:20:53;50.03;;;25.87;;
18338;SDS011;9295;44.484;11.240;2024-01-30T14:23:22;49.00;;;26.60;;
18338;SDS011;9295;44.484;11.240;2024-01-30T14:25:52;49.03;;;24.57;;
18338;SDS011;9295;44.484;11.240;2024-01-30T14:28:21;46.97;;;26.03;;
18338;SDS011;9295;44.484;11.240;2024-01-30T14:30:49;51.77;;;27.40;;
18338;SDS011;9295;44.484;11.240;2024-01-30T14:33:18;52.87;;;26.37;;